CheckWX is a tool to help pilots better visualize weather data.  It is not intended as a substitute for an official pre-flight weather briefing.

14:10:15 UTC

CYDB METAR
Burwash Airport
Burwash, Canada
Current

1 hour ago

CYDB 201300Z 31002KT 5SM -RA BR SCT007 BKN019 OVC045 12/11 A3006 RMK ST3SC3SC2 /4.6 MM/ SLP194 DENSITY ALT 2800FT
Observed
Jul-20 @ 13:00 UTC
Wind
  • 310° at 2 KTS
Visibility
5 SM
Flight Rules
MVFR
Conditions
Light Rain, Mist
Cloud Levels
  • Scattered at 700' AGL
  • Broken at 1,900' AGL
  • Overcast at 4,500' AGL
Temperature
12°C / 54°F
Dewpoint
11°C / 52°F
Humidity
94%
Altimeter
30.06" Hg
Pressure
1017.92 hPa
Previous

1 hour ago

CYDB 201255Z AUTO 31002KT 6SM -RA BR BKN010 BKN019 OVC046 12/11 A3006 RMK SLP194 DENSITY ALT 2700FT
Observed
Jul-20 @ 12:55 UTC
Wind
  • 310° at 2 KTS
Visibility
6 SM
Flight Rules
MVFR
Conditions
Light Rain, Mist
Cloud Levels
  • Broken at 1,000' AGL
  • Broken at 1,900' AGL
  • Overcast at 4,600' AGL
Temperature
12°C / 54°F
Dewpoint
11°C / 52°F
Humidity
94%
Altimeter
30.06" Hg
Pressure
1017.92 hPa
Previous

2 hours ago

CYDB 201229Z AUTO 29003KT 9SM -RA BKN012 12/11 A3006 RMK SLP192 DENSITY ALT 2700FT
Observed
Jul-20 @ 12:29 UTC
Wind
  • 290° at 3 KTS
Visibility
9 SM
Flight Rules
MVFR
Conditions
Light Rain
Cloud Levels
  • Broken at 1,200' AGL
Temperature
12°C / 54°F
Dewpoint
11°C / 52°F
Humidity
94%
Altimeter
30.06" Hg
Pressure
1017.92 hPa